sensor_id;sensor_type;location;lat;lon;timestamp;temperature;humidity
72883;DHT22;61017;37.812;-122.286;2024-03-02T00:01:06;15.90;89.50
72883;DHT22;61017;37.812;-122.286;2024-03-02T00:02:44;15.90;89.60
72883;DHT22;61017;37.812;-122.286;2024-03-02T00:04:15;15.90;89.70
72883;DHT22;61017;37.812;-122.286;2024-03-02T00:05:49;15.90;89.70
72883;DHT22;61017;37.812;-122.286;2024-03-02T00:07:21;15.90;89.70
72883;DHT22;61017;37.812;-122.286;2024-03-02T00:08:54;15.90;89.60
72883;DHT22;61017;37.812;-122.286;2024-03-02T00:10:29;15.90;89.50
72883;DHT22;61017;37.812;-122.286;2024-03-02T00:12:02;16.00;89.50
72883;DHT22;61017;37.812;-122.286;2024-03-02T00:13:33;16.00;89.30
72883;DHT22;61017;37.812;-122.286;2024-03-02T00:15:46;16.00;89.30
72883;DHT22;61017;37.812;-122.286;2024-03-02T00:16:58;16.00;89.20
72883;DHT22;61017;37.812;-122.286;2024-03-02T00:18:33;16.00;89.20
72883;DHT22;61017;37.812;-122.286;2024-03-02T00:20:08;16.00;89.20
72883;DHT22;61017;37.812;-122.286;2024-03-02T00:21:40;16.00;89.60
72883;DHT22;61017;37.812;-122.286;2024-03-02T00:23:15;16.00;89.40
72883;DHT22;61017;37.812;-122.286;2024-03-02T00:24:46;16.00;89.60
72883;DHT22;61017;37.812;-122.286;2024-03-02T00:26:17;15.90;89.80
72883;DHT22;61017;37.812;-122.286;2024-03-02T00:27:51;15.90;90.00
72883;DHT22;61017;37.812;-122.286;2024-03-02T00:29:22;15.90;90.10
72883;DHT22;61017;37.812;-122.286;2024-03-02T00:32:26;15.90;90.20
72883;DHT22;61017;37.812;-122.286;2024-03-02T00:33:57;16.00;90.20
72883;DHT22;61017;37.812;-122.286;2024-03-02T00:35:32;16.00;90.10
72883;DHT22;61017;37.812;-122.286;2024-03-02T00:37:03;16.00;90.10
72883;DHT22;61017;37.812;-122.286;2024-03-02T00:38:39;16.00;90.00
72883;DHT22;61017;37.812;-122.286;2024-03-02T00:40:12;16.00;90.10
72883;DHT22;61017;37.812;-122.286;2024-03-02T00:41:43;16.00;90.10
72883;DHT22;61017;37.812;-122.286;2024-03-02T00:44:55;16.00;90.00
72883;DHT22;61017;37.812;-122.286;2024-03-02T00:46:27;16.00;90.00
72883;DHT22;61017;37.812;-122.286;2024-03-02T00:48:01;16.00;90.10
72883;DHT22;61017;37.812;-122.286;2024-03-02T00:49:32;16.00;90.10
72883;DHT22;61017;37.812;-122.286;2024-03-02T00:51:03;16.00;90.10
72883;DHT22;61017;37.812;-122.286;2024-03-02T00:52:35;16.00;90.10
72883;DHT22;61017;37.812;-122.286;2024-03-02T00:54:07;16.00;90.20
72883;DHT22;61017;37.812;-122.286;2024-03-02T00:55:38;16.00;90.20
72883;DHT22;61017;37.812;-122.286;2024-03-02T00:57:10;16.00;90.20
72883;DHT22;61017;37.812;-122.286;2024-03-02T00:58:42;16.00;90.20
72883;DHT22;61017;37.812;-122.286;2024-03-02T01:00:16;16.00;90.20
72883;DHT22;61017;37.812;-122.286;2024-03-02T01:01:47;16.00;90.20
72883;DHT22;61017;37.812;-122.286;2024-03-02T01:03:19;16.00;90.40
72883;DHT22;61017;37.812;-122.286;2024-03-02T01:04:53;15.90;90.40
72883;DHT22;61017;37.812;-122.286;2024-03-02T01:06:27;15.90;90.50
72883;DHT22;61017;37.812;-122.286;2024-03-02T01:08:01;15.90;90.50
72883;DHT22;61017;37.812;-122.286;2024-03-02T01:09:34;15.90;90.50
72883;DHT22;61017;37.812;-122.286;2024-03-02T01:11:13;15.90;90.40
72883;DHT22;61017;37.812;-122.286;2024-03-02T01:12:44;15.90;90.30
72883;DHT22;61017;37.812;-122.286;2024-03-02T01:14:15;15.90;90.30
72883;DHT22;61017;37.812;-122.286;2024-03-02T01:15:46;16.00;90.30
72883;DHT22;61017;37.812;-122.286;2024-03-02T01:17:17;16.00;90.20
72883;DHT22;61017;37.812;-122.286;2024-03-02T01:18:48;16.00;90.20
72883;DHT22;61017;37.812;-122.286;2024-03-02T01:20:19;15.90;90.20
72883;DHT22;61017;37.812;-122.286;2024-03-02T01:21:51;15.90;90.20
72883;DHT22;61017;37.812;-122.286;2024-03-02T01:23:24;15.90;90.20
72883;DHT22;61017;37.812;-122.286;2024-03-02T01:24:55;15.90;90.20
72883;DHT22;61017;37.812;-122.286;2024-03-02T01:26:27;16.00;90.20
72883;DHT22;61017;37.812;-122.286;2024-03-02T01:27:58;16.00;90.20
72883;DHT22;61017;37.812;-122.286;2024-03-02T01:29:29;15.90;90.10
72883;DHT22;61017;37.812;-122.286;2024-03-02T01:31:00;16.00;90.10
72883;DHT22;61017;37.812;-122.286;2024-03-02T01:32:31;16.00;90.10
72883;DHT22;61017;37.812;-122.286;2024-03-02T01:34:02;16.00;90.00
72883;DHT22;61017;37.812;-122.286;2024-03-02T01:35:33;16.00;89.80
72883;DHT22;61017;37.812;-122.286;2024-03-02T01:37:04;16.00;89.80
72883;DHT22;61017;37.812;-122.286;2024-03-02T01:38:44;16.00;89.80
72883;DHT22;61017;37.812;-122.286;2024-03-02T01:40:15;16.00;89.80
72883;DHT22;61017;37.812;-122.286;2024-03-02T01:41:49;16.00;89.80
72883;DHT22;61017;37.812;-122.286;2024-03-02T01:43:20;16.00;89.80
72883;DHT22;61017;37.812;-122.286;2024-03-02T01:44:52;16.00;89.70
72883;DHT22;61017;37.812;-122.286;2024-03-02T01:46:23;16.00;89.70
72883;DHT22;61017;37.812;-122.286;2024-03-02T01:47:54;16.00;89.70
72883;DHT22;61017;37.812;-122.286;2024-03-02T01:49:25;16.00;89.60
72883;DHT22;61017;37.812;-122.286;2024-03-02T01:50:56;16.00;89.50
72883;DHT22;61017;37.812;-122.286;2024-03-02T01:52:28;16.00;89.50
72883;DHT22;61017;37.812;-122.286;2024-03-02T01:53:59;16.00;89.50
72883;DHT22;61017;37.812;-122.286;2024-03-02T01:55:30;15.90;89.40
72883;DHT22;61017;37.812;-122.286;2024-03-02T01:57:01;15.90;89.40
72883;DHT22;61017;37.812;-122.286;2024-03-02T01:58:38;15.90;89.40
72883;DHT22;61017;37.812;-122.286;2024-03-02T02:00:09;15.90;89.40
72883;DHT22;61017;37.812;-122.286;2024-03-02T02:01:40;15.90;89.50
72883;DHT22;61017;37.812;-122.286;2024-03-02T02:03:12;15.90;89.50
72883;DHT22;61017;37.812;-122.286;2024-03-02T02:04:43;15.90;89.50
72883;DHT22;61017;37.812;-122.286;2024-03-02T02:06:14;15.90;89.50
72883;DHT22;61017;37.812;-122.286;2024-03-02T02:07:45;15.90;89.30
72883;DHT22;61017;37.812;-122.286;2024-03-02T02:09:16;15.90;89.20
72883;DHT22;61017;37.812;-122.286;2024-03-02T02:10:50;16.00;89.10
72883;DHT22;61017;37.812;-122.286;2024-03-02T02:12:21;16.00;89.00
72883;DHT22;61017;37.812;-122.286;2024-03-02T02:13:52;15.90;88.90
72883;DHT22;61017;37.812;-122.286;2024-03-02T02:16:54;15.90;88.80
72883;DHT22;61017;37.812;-122.286;2024-03-02T02:18:25;15.90;88.80
72883;DHT22;61017;37.812;-122.286;2024-03-02T02:19:59;15.90;88.60
72883;DHT22;61017;37.812;-122.286;2024-03-02T02:21:30;15.90;88.60
72883;DHT22;61017;37.812;-122.286;2024-03-02T02:23:02;15.90;88.50
72883;DHT22;61017;37.812;-122.286;2024-03-02T02:24:39;15.90;88.50
72883;DHT22;61017;37.812;-122.286;2024-03-02T02:26:10;15.90;88.40
72883;DHT22;61017;37.812;-122.286;2024-03-02T02:27:47;15.90;88.50
72883;DHT22;61017;37.812;-122.286;2024-03-02T02:29:18;15.90;88.50
72883;DHT22;61017;37.812;-122.286;2024-03-02T02:30:49;15.90;88.40
72883;DHT22;61017;37.812;-122.286;2024-03-02T02:32:20;15.90;88.30
72883;DHT22;61017;37.812;-122.286;2024-03-02T02:33:54;15.90;88.30
72883;DHT22;61017;37.812;-122.286;2024-03-02T02:35:25;15.90;88.20
72883;DHT22;61017;37.812;-122.286;2024-03-02T02:36:56;15.90;88.30
72883;DHT22;61017;37.812;-122.286;2024-03-02T02:38:27;15.90;88.20
72883;DHT22;61017;37.812;-122.286;2024-03-02T02:39:58;15.90;88.30
72883;DHT22;61017;37.812;-122.286;2024-03-02T02:41:32;15.90;88.30
72883;DHT22;61017;37.812;-122.286;2024-03-02T02:43:03;15.90;88.20
72883;DHT22;61017;37.812;-122.286;2024-03-02T02:44:34;15.90;88.10
72883;DHT22;61017;37.812;-122.286;2024-03-02T02:46:05;15.90;88.10
72883;DHT22;61017;37.812;-122.286;2024-03-02T02:47:36;16.00;88.10
72883;DHT22;61017;37.812;-122.286;2024-03-02T02:49:07;15.90;87.90
72883;DHT22;61017;37.812;-122.286;2024-03-02T02:50:38;15.90;87.90
72883;DHT22;61017;37.812;-122.286;2024-03-02T02:52:09;15.90;88.00
72883;DHT22;61017;37.812;-122.286;2024-03-02T02:53:41;15.90;88.00
72883;DHT22;61017;37.812;-122.286;2024-03-02T02:55:13;15.90;87.90
72883;DHT22;61017;37.812;-122.286;2024-03-02T02:56:44;15.90;87.90
72883;DHT22;61017;37.812;-122.286;2024-03-02T02:58:15;15.90;87.90
72883;DHT22;61017;37.812;-122.286;2024-03-02T02:59:46;15.90;88.00
72883;DHT22;61017;37.812;-122.286;2024-03-02T03:01:17;15.90;88.10
72883;DHT22;61017;37.812;-122.286;2024-03-02T03:02:49;15.90;88.10
72883;DHT22;61017;37.812;-122.286;2024-03-02T03:04:20;15.90;88.20
72883;DHT22;61017;37.812;-122.286;2024-03-02T03:05:51;15.90;88.20
72883;DHT22;61017;37.812;-122.286;2024-03-02T03:07:22;15.90;88.10
72883;DHT22;61017;37.812;-122.286;2024-03-02T03:08:53;15.90;88.00
72883;DHT22;61017;37.812;-122.286;2024-03-02T03:10:24;15.90;88.10
72883;DHT22;61017;37.812;-122.286;2024-03-02T03:11:55;15.90;88.00
72883;DHT22;61017;37.812;-122.286;2024-03-02T03:13:26;15.90;88.00
72883;DHT22;61017;37.812;-122.286;2024-03-02T03:14:58;15.90;88.10
72883;DHT22;61017;37.812;-122.286;2024-03-02T03:16:29;15.90;88.00
72883;DHT22;61017;37.812;-122.286;2024-03-02T03:18:00;15.90;88.10
72883;DHT22;61017;37.812;-122.286;2024-03-02T03:19:31;15.90;88.20
72883;DHT22;61017;37.812;-122.286;2024-03-02T03:21:02;15.90;88.30
72883;DHT22;61017;37.812;-122.286;2024-03-02T03:22:34;15.90;88.30
72883;DHT22;61017;37.812;-122.286;2024-03-02T03:24:05;15.90;88.30
72883;DHT22;61017;37.812;-122.286;2024-03-02T03:25:36;15.90;88.00
72883;DHT22;61017;37.812;-122.286;2024-03-02T03:27:07;15.90;87.90
72883;DHT22;61017;37.812;-122.286;2024-03-02T03:28:40;15.90;87.90
72883;DHT22;61017;37.812;-122.286;2024-03-02T03:30:12;15.90;87.80
72883;DHT22;61017;37.812;-122.286;2024-03-02T03:31:43;15.90;87.80
72883;DHT22;61017;37.812;-122.286;2024-03-02T03:33:14;15.80;87.60
72883;DHT22;61017;37.812;-122.286;2024-03-02T03:34:45;15.90;87.70
72883;DHT22;61017;37.812;-122.286;2024-03-02T03:36:19;15.80;87.60
72883;DHT22;61017;37.812;-122.286;2024-03-02T03:37:53;15.80;87.60
72883;DHT22;61017;37.812;-122.286;2024-03-02T03:39:24;15.80;87.50
72883;DHT22;61017;37.812;-122.286;2024-03-02T03:40:58;15.80;88.20
72883;DHT22;61017;37.812;-122.286;2024-03-02T03:42:29;15.80;87.30
72883;DHT22;61017;37.812;-122.286;2024-03-02T03:44:00;15.80;87.30
72883;DHT22;61017;37.812;-122.286;2024-03-02T03:45:31;15.80;87.10
72883;DHT22;61017;37.812;-122.286;2024-03-02T03:47:02;15.80;87.10
72883;DHT22;61017;37.812;-122.286;2024-03-02T03:48:36;15.80;87.10
72883;DHT22;61017;37.812;-122.286;2024-03-02T03:50:08;15.90;87.10
72883;DHT22;61017;37.812;-122.286;2024-03-02T03:51:39;15.80;87.00
72883;DHT22;61017;37.812;-122.286;2024-03-02T03:53:10;15.80;87.00
72883;DHT22;61017;37.812;-122.286;2024-03-02T03:54:41;15.80;86.90
72883;DHT22;61017;37.812;-122.286;2024-03-02T03:56:12;15.90;86.80
72883;DHT22;61017;37.812;-122.286;2024-03-02T03:57:45;15.90;87.30
72883;DHT22;61017;37.812;-122.286;2024-03-02T03:59:17;16.20;85.80
72883;DHT22;61017;37.812;-122.286;2024-03-02T04:01:08;16.50;82.60
72883;DHT22;61017;37.812;-122.286;2024-03-02T04:02:39;16.90;78.80
72883;DHT22;61017;37.812;-122.286;2024-03-02T04:04:10;17.20;76.40
72883;DHT22;61017;37.812;-122.286;2024-03-02T04:05:41;17.50;74.60
72883;DHT22;61017;37.812;-122.286;2024-03-02T04:07:12;17.70;73.30
72883;DHT22;61017;37.812;-122.286;2024-03-02T04:08:46;17.80;72.10
72883;DHT22;61017;37.812;-122.286;2024-03-02T04:10:17;17.90;71.30
72883;DHT22;61017;37.812;-122.286;2024-03-02T04:11:48;18.00;70.30
72883;DHT22;61017;37.812;-122.286;2024-03-02T04:13:19;18.10;69.80
72883;DHT22;61017;37.812;-122.286;2024-03-02T04:14:51;18.10;69.10
72883;DHT22;61017;37.812;-122.286;2024-03-02T04:16:22;17.90;72.90
72883;DHT22;61017;37.812;-122.286;2024-03-02T04:17:55;17.60;72.30
72883;DHT22;61017;37.812;-122.286;2024-03-02T04:19:26;17.70;71.40
72883;DHT22;61017;37.812;-122.286;2024-03-02T04:20:58;17.90;70.50
72883;DHT22;61017;37.812;-122.286;2024-03-02T04:22:29;18.10;69.50
72883;DHT22;61017;37.812;-122.286;2024-03-02T04:24:02;18.10;69.00
72883;DHT22;61017;37.812;-122.286;2024-03-02T04:25:33;18.20;68.60
72883;DHT22;61017;37.812;-122.286;2024-03-02T04:27:05;18.20;68.80
72883;DHT22;61017;37.812;-122.286;2024-03-02T04:28:36;17.80;72.20
72883;DHT22;61017;37.812;-122.286;2024-03-02T04:30:07;17.80;70.30
72883;DHT22;61017;37.812;-122.286;2024-03-02T04:31:38;17.90;69.50
72883;DHT22;61017;37.812;-122.286;2024-03-02T04:33:09;18.20;68.30
72883;DHT22;61017;37.812;-122.286;2024-03-02T04:34:43;18.30;68.50
72883;DHT22;61017;37.812;-122.286;2024-03-02T04:36:24;17.90;71.50
72883;DHT22;61017;37.812;-122.286;2024-03-02T04:37:55;17.50;73.60
72883;DHT22;61017;37.812;-122.286;2024-03-02T04:39:26;17.20;75.30
72883;DHT22;61017;37.812;-122.286;2024-03-02T04:41:00;16.90;76.10
72883;DHT22;61017;37.812;-122.286;2024-03-02T04:42:31;16.80;77.10
72883;DHT22;61017;37.812;-122.286;2024-03-02T04:44:02;16.80;78.30
72883;DHT22;61017;37.812;-122.286;2024-03-02T04:45:33;16.90;77.20
72883;DHT22;61017;37.812;-122.286;2024-03-02T04:47:04;17.40;74.80
72883;DHT22;61017;37.812;-122.286;2024-03-02T04:48:35;17.80;72.20
72883;DHT22;61017;37.812;-122.286;2024-03-02T04:50:10;18.00;70.40
72883;DHT22;61017;37.812;-122.286;2024-03-02T04:51:41;18.20;69.00
72883;DHT22;61017;37.812;-122.286;2024-03-02T04:53:12;18.20;67.90
72883;DHT22;61017;37.812;-122.286;2024-03-02T04:54:43;18.30;67.50
72883;DHT22;61017;37.812;-122.286;2024-03-02T04:56:14;17.80;70.60
72883;DHT22;61017;37.812;-122.286;2024-03-02T04:57:46;17.50;72.10
72883;DHT22;61017;37.812;-122.286;2024-03-02T04:59:18;17.70;69.80
72883;DHT22;61017;37.812;-122.286;2024-03-02T05:00:49;18.00;68.80
72883;DHT22;61017;37.812;-122.286;2024-03-02T05:02:20;18.20;67.60
72883;DHT22;61017;37.812;-122.286;2024-03-02T05:03:51;18.20;66.90
72883;DHT22;61017;37.812;-122.286;2024-03-02T05:05:22;18.30;66.20
72883;DHT22;61017;37.812;-122.286;2024-03-02T05:06:53;18.40;65.40
72883;DHT22;61017;37.812;-122.286;2024-03-02T05:08:24;18.00;68.50
72883;DHT22;61017;37.812;-122.286;2024-03-02T05:09:55;17.90;67.80
72883;DHT22;61017;37.812;-122.286;2024-03-02T05:11:26;18.00;66.80
72883;DHT22;61017;37.812;-122.286;2024-03-02T05:12:57;18.10;66.00
72883;DHT22;61017;37.812;-122.286;2024-03-02T05:14:29;18.30;65.20
72883;DHT22;61017;37.812;-122.286;2024-03-02T05:16:20;18.40;64.60
72883;DHT22;61017;37.812;-122.286;2024-03-02T05:17:51;18.40;64.00
72883;DHT22;61017;37.812;-122.286;2024-03-02T05:19:22;18.30;65.80
72883;DHT22;61017;37.812;-122.286;2024-03-02T05:20:53;17.90;66.60
72883;DHT22;61017;37.812;-122.286;2024-03-02T05:22:24;18.10;65.30
72883;DHT22;61017;37.812;-122.286;2024-03-02T05:23:55;18.20;64.70
72883;DHT22;61017;37.812;-122.286;2024-03-02T05:25:26;18.30;63.80
72883;DHT22;61017;37.812;-122.286;2024-03-02T05:26:57;18.30;63.60
72883;DHT22;61017;37.812;-122.286;2024-03-02T05:28:29;18.40;62.90
72883;DHT22;61017;37.812;-122.286;2024-03-02T05:30:00;18.40;62.90
72883;DHT22;61017;37.812;-122.286;2024-03-02T05:31:51;18.10;65.60
72883;DHT22;61017;37.812;-122.286;2024-03-02T05:33:22;17.90;64.80
72883;DHT22;61017;37.812;-122.286;2024-03-02T05:34:54;18.10;64.30
72883;DHT22;61017;37.812;-122.286;2024-03-02T05:36:25;18.20;63.60
72883;DHT22;61017;37.812;-122.286;2024-03-02T05:37:56;18.30;62.90
72883;DHT22;61017;37.812;-122.286;2024-03-02T05:39:27;18.30;63.20
72883;DHT22;61017;37.812;-122.286;2024-03-02T05:40:58;18.20;62.90
72883;DHT22;61017;37.812;-122.286;2024-03-02T05:42:29;18.10;64.80
72883;DHT22;61017;37.812;-122.286;2024-03-02T05:44:00;17.90;65.70
72883;DHT22;61017;37.812;-122.286;2024-03-02T05:45:34;18.00;64.30
72883;DHT22;61017;37.812;-122.286;2024-03-02T05:47:06;18.10;63.60
72883;DHT22;61017;37.812;-122.286;2024-03-02T05:48:37;18.20;63.00
72883;DHT22;61017;37.812;-122.286;2024-03-02T05:50:08;18.30;62.60
72883;DHT22;61017;37.812;-122.286;2024-03-02T05:51:39;18.30;62.30
72883;DHT22;61017;37.812;-122.286;2024-03-02T05:53:10;18.20;62.50
72883;DHT22;61017;37.812;-122.286;2024-03-02T05:54:44;17.90;65.50
72883;DHT22;61017;37.812;-122.286;2024-03-02T05:56:15;17.90;64.70
72883;DHT22;61017;37.812;-122.286;2024-03-02T05:57:46;18.10;63.60
72883;DHT22;61017;37.812;-122.286;2024-03-02T05:59:17;18.20;62.90
72883;DHT22;61017;37.812;-122.286;2024-03-02T06:00:50;18.30;62.50
72883;DHT22;61017;37.812;-122.286;2024-03-02T06:02:21;18.40;62.00
72883;DHT22;61017;37.812;-122.286;2024-03-02T06:03:52;18.40;61.60
72883;DHT22;61017;37.812;-122.286;2024-03-02T06:05:24;18.30;63.50
72883;DHT22;61017;37.812;-122.286;2024-03-02T06:06:55;17.90;65.00
72883;DHT22;61017;37.812;-122.286;2024-03-02T06:08:26;18.00;63.20
72883;DHT22;61017;37.812;-122.286;2024-03-02T06:09:57;18.20;62.80
72883;DHT22;61017;37.812;-122.286;2024-03-02T06:11:28;18.30;62.00
72883;DHT22;61017;37.812;-122.286;2024-03-02T06:12:59;18.40;61.80
72883;DHT22;61017;37.812;-122.286;2024-03-02T06:14:33;18.40;61.30
72883;DHT22;61017;37.812;-122.286;2024-03-02T06:16:04;18.50;60.90
72883;DHT22;61017;37.812;-122.286;2024-03-02T06:17:35;18.10;63.90
72883;DHT22;61017;37.812;-122.286;2024-03-02T06:19:06;17.90;63.70
72883;DHT22;61017;37.812;-122.286;2024-03-02T06:20:37;18.10;63.00
72883;DHT22;61017;37.812;-122.286;2024-03-02T06:22:08;18.30;62.50
72883;DHT22;61017;37.812;-122.286;2024-03-02T06:23:39;18.30;62.10
72883;DHT22;61017;37.812;-122.286;2024-03-02T06:25:13;18.30;61.80
72883;DHT22;61017;37.812;-122.286;2024-03-02T06:26:44;18.40;61.90
72883;DHT22;61017;37.812;-122.286;2024-03-02T06:28:15;18.30;62.70
72883;DHT22;61017;37.812;-122.286;2024-03-02T06:29:46;18.00;65.00
72883;DHT22;61017;37.812;-122.286;2024-03-02T06:31:17;18.10;63.30
72883;DHT22;61017;37.812;-122.286;2024-03-02T06:32:48;18.10;62.70
72883;DHT22;61017;37.812;-122.286;2024-03-02T06:34:19;18.30;62.50
72883;DHT22;61017;37.812;-122.286;2024-03-02T06:35:53;18.30;61.80
72883;DHT22;61017;37.812;-122.286;2024-03-02T06:37:24;18.40;61.80
72883;DHT22;61017;37.812;-122.286;2024-03-02T06:38:55;18.30;61.40
72883;DHT22;61017;37.812;-122.286;2024-03-02T06:40:26;18.10;63.40
72883;DHT22;61017;37.812;-122.286;2024-03-02T06:42:00;17.90;64.10
72883;DHT22;61017;37.812;-122.286;2024-03-02T06:43:31;18.10;63.00
72883;DHT22;61017;37.812;-122.286;2024-03-02T06:45:02;18.30;62.00
72883;DHT22;61017;37.812;-122.286;2024-03-02T06:46:36;18.30;61.50
72883;DHT22;61017;37.812;-122.286;2024-03-02T06:48:07;18.50;61.00
72883;DHT22;61017;37.812;-122.286;2024-03-02T06:49:38;18.50;60.50
72883;DHT22;61017;37.812;-122.286;2024-03-02T06:51:10;18.50;61.00
72883;DHT22;61017;37.812;-122.286;2024-03-02T06:52:41;18.10;63.80
72883;DHT22;61017;37.812;-122.286;2024-03-02T06:54:12;18.10;62.40
72883;DHT22;61017;37.812;-122.286;2024-03-02T06:55:43;18.20;62.10
72883;DHT22;61017;37.812;-122.286;2024-03-02T06:57:14;18.30;62.00
72883;DHT22;61017;37.812;-122.286;2024-03-02T06:58:45;18.40;60.70
72883;DHT22;61017;37.812;-122.286;2024-03-02T07:00:16;18.40;60.60
72883;DHT22;61017;37.812;-122.286;2024-03-02T07:01:49;18.30;61.30
72883;DHT22;61017;37.812;-122.286;2024-03-02T07:03:20;18.30;62.00
72883;DHT22;61017;37.812;-122.286;2024-03-02T07:04:51;18.00;63.50
72883;DHT22;61017;37.812;-122.286;2024-03-02T07:06:22;18.10;62.10
72883;DHT22;61017;37.812;-122.286;2024-03-02T07:07:53;18.20;61.40
72883;DHT22;61017;37.812;-122.286;2024-03-02T07:09:24;18.30;61.10
72883;DHT22;61017;37.812;-122.286;2024-03-02T07:10:55;18.20;61.20
72883;DHT22;61017;37.812;-122.286;2024-03-02T07:12:27;18.30;61.30
72883;DHT22;61017;37.812;-122.286;2024-03-02T07:13:58;18.30;60.90
72883;DHT22;61017;37.812;-122.286;2024-03-02T07:15:29;18.00;62.80
72883;DHT22;61017;37.812;-122.286;2024-03-02T07:17:00;17.90;62.30
72883;DHT22;61017;37.812;-122.286;2024-03-02T07:18:31;18.20;61.50
72883;DHT22;61017;37.812;-122.286;2024-03-02T07:20:02;18.30;60.80
72883;DHT22;61017;37.812;-122.286;2024-03-02T07:21:33;18.30;60.70
72883;DHT22;61017;37.812;-122.286;2024-03-02T07:23:04;18.30;60.30
72883;DHT22;61017;37.812;-122.286;2024-03-02T07:24:42;18.20;60.40
72883;DHT22;61017;37.812;-122.286;2024-03-02T07:26:13;18.20;61.40
72883;DHT22;61017;37.812;-122.286;2024-03-02T07:27:44;18.00;63.10
72883;DHT22;61017;37.812;-122.286;2024-03-02T07:29:15;18.00;61.20
72883;DHT22;61017;37.812;-122.286;2024-03-02T07:30:46;18.30;60.60
72883;DHT22;61017;37.812;-122.286;2024-03-02T07:33:48;18.40;59.20
72883;DHT22;61017;37.812;-122.286;2024-03-02T07:35:19;18.50;59.30
72883;DHT22;61017;37.812;-122.286;2024-03-02T07:36:50;18.40;59.10
72883;DHT22;61017;37.812;-122.286;2024-03-02T07:38:22;18.20;60.80
72883;DHT22;61017;37.812;-122.286;2024-03-02T07:39:53;18.10;61.10
72883;DHT22;61017;37.812;-122.286;2024-03-02T07:41:24;18.20;60.40
72883;DHT22;61017;37.812;-122.286;2024-03-02T07:42:55;18.30;59.90
72883;DHT22;61017;37.812;-122.286;2024-03-02T07:44:26;18.40;59.60
72883;DHT22;61017;37.812;-122.286;2024-03-02T07:45:57;18.20;61.60
72883;DHT22;61017;37.812;-122.286;2024-03-02T07:47:28;17.80;62.70
72883;DHT22;61017;37.812;-122.286;2024-03-02T07:48:59;17.60;64.00
72883;DHT22;61017;37.812;-122.286;2024-03-02T07:50:30;17.40;64.60
72883;DHT22;61017;37.812;-122.286;2024-03-02T07:52:01;17.30;65.30
72883;DHT22;61017;37.812;-122.286;2024-03-02T07:53:32;17.20;66.00
72883;DHT22;61017;37.812;-122.286;2024-03-02T07:55:03;17.20;67.50
72883;DHT22;61017;37.812;-122.286;2024-03-02T07:56:34;17.00;67.50
72883;DHT22;61017;37.812;-122.286;2024-03-02T07:58:06;17.00;67.90
72883;DHT22;61017;37.812;-122.286;2024-03-02T07:59:37;16.90;68.10
72883;DHT22;61017;37.812;-122.286;2024-03-02T08:01:08;16.90;69.00
72883;DHT22;61017;37.812;-122.286;2024-03-02T08:02:39;16.90;69.40
72883;DHT22;61017;37.812;-122.286;2024-03-02T08:04:11;16.80;69.60
72883;DHT22;61017;37.812;-122.286;2024-03-02T08:05:42;16.80;70.00
72883;DHT22;61017;37.812;-122.286;2024-03-02T08:07:13;16.80;70.80
72883;DHT22;61017;37.812;-122.286;2024-03-02T08:08:44;16.80;71.00
72883;DHT22;61017;37.812;-122.286;2024-03-02T08:10:15;16.70;70.90
72883;DHT22;61017;37.812;-122.286;2024-03-02T08:11:46;16.70;71.40
72883;DHT22;61017;37.812;-122.286;2024-03-02T08:13:17;16.70;71.70
72883;DHT22;61017;37.812;-122.286;2024-03-02T08:14:48;16.60;72.00
72883;DHT22;61017;37.812;-122.286;2024-03-02T08:16:19;16.60;72.30
72883;DHT22;61017;37.812;-122.286;2024-03-02T08:17:50;16.60;72.30
72883;DHT22;61017;37.812;-122.286;2024-03-02T08:19:21;16.60;72.60
72883;DHT22;61017;37.812;-122.286;2024-03-02T08:20:53;16.50;72.80
72883;DHT22;61017;37.812;-122.286;2024-03-02T08:22:24;16.50;73.00
72883;DHT22;61017;37.812;-122.286;2024-03-02T08:23:55;16.50;73.10
72883;DHT22;61017;37.812;-122.286;2024-03-02T08:25:26;16.60;73.50
72883;DHT22;61017;37.812;-122.286;2024-03-02T08:26:58;16.50;73.60
72883;DHT22;61017;37.812;-122.286;2024-03-02T08:28:29;16.50;73.60
72883;DHT22;61017;37.812;-122.286;2024-03-02T08:30:00;16.50;73.90
72883;DHT22;61017;37.812;-122.286;2024-03-02T08:31:31;16.50;74.10
72883;DHT22;61017;37.812;-122.286;2024-03-02T08:33:02;16.50;74.20
72883;DHT22;61017;37.812;-122.286;2024-03-02T08:34:33;16.50;74.30
72883;DHT22;61017;37.812;-122.286;2024-03-02T08:36:04;16.50;74.30
72883;DHT22;61017;37.812;-122.286;2024-03-02T08:37:36;16.50;74.40
72883;DHT22;61017;37.812;-122.286;2024-03-02T08:39:08;16.50;74.60
72883;DHT22;61017;37.812;-122.286;2024-03-02T08:40:39;16.50;74.60
72883;DHT22;61017;37.812;-122.286;2024-03-02T08:42:10;16.40;74.70
72883;DHT22;61017;37.812;-122.286;2024-03-02T08:43:41;16.40;74.80
72883;DHT22;61017;37.812;-122.286;2024-03-02T08:45:13;16.40;75.00
72883;DHT22;61017;37.812;-122.286;2024-03-02T08:46:44;16.40;75.10
72883;DHT22;61017;37.812;-122.286;2024-03-02T08:48:15;16.40;75.20
72883;DHT22;61017;37.812;-122.286;2024-03-02T08:49:46;16.40;75.30
72883;DHT22;61017;37.812;-122.286;2024-03-02T08:51:17;16.40;75.20
72883;DHT22;61017;37.812;-122.286;2024-03-02T08:52:48;16.40;75.30
72883;DHT22;61017;37.812;-122.286;2024-03-02T08:54:19;16.30;75.40
72883;DHT22;61017;37.812;-122.286;2024-03-02T08:55:50;16.30;75.60
72883;DHT22;61017;37.812;-122.286;2024-03-02T08:57:21;16.30;75.60
72883;DHT22;61017;37.812;-122.286;2024-03-02T08:58:52;16.20;75.70
72883;DHT22;61017;37.812;-122.286;2024-03-02T09:00:23;16.20;75.90
72883;DHT22;61017;37.812;-122.286;2024-03-02T09:01:55;16.20;76.00
72883;DHT22;61017;37.812;-122.286;2024-03-02T09:03:26;16.20;75.90
72883;DHT22;61017;37.812;-122.286;2024-03-02T09:04:57;16.30;75.90
72883;DHT22;61017;37.812;-122.286;2024-03-02T09:06:28;16.30;75.80
72883;DHT22;61017;37.812;-122.286;2024-03-02T09:07:59;16.30;76.00
72883;DHT22;61017;37.812;-122.286;2024-03-02T09:09:30;16.20;75.90
72883;DHT22;61017;37.812;-122.286;2024-03-02T09:11:02;16.20;76.00
72883;DHT22;61017;37.812;-122.286;2024-03-02T09:12:33;16.30;76.10
72883;DHT22;61017;37.812;-122.286;2024-03-02T09:14:04;16.30;76.80
72883;DHT22;61017;37.812;-122.286;2024-03-02T09:15:35;16.30;76.10
72883;DHT22;61017;37.812;-122.286;2024-03-02T09:17:07;16.20;76.00
72883;DHT22;61017;37.812;-122.286;2024-03-02T09:18:38;16.30;76.40
72883;DHT22;61017;37.812;-122.286;2024-03-02T09:20:09;16.20;76.30